Clear Lake, Minnesota
Current Conditions -  °F | °C
As of 11:53 PM on Friday 19 Dec 2014 (Local Time) from KSTC Reporting Station
Haze Haze  
Wind Chill: 23°   Ceiling: 800
Heat Index: 32°   Visibility: 4mi
Dew Point: 27°   Wind: 12mph
Humidity: 82%   Direction: 160°SSE
Pressure: 30.11"   Gusts: NA
Location:  45.44°N, 94°W
Report Text: KSTC 200553Z AUTO 16010KT 4SM HZ OVC008 00/M03 A3011 RMK AO2 SLP218 T00001028 10000 21011 400001056 57005
Loading
Personal Weather Stations






























Interactive Weather Map New forecast layout! Learn more

10-Day Weather Forecast

Advertisements
Track Severe Weather on mobile